KNEL/NEL METAR and TAF weather

Enter ICAO airport designator
Station Type Date Time Source
KNEL METAR 2021/01/16 03:00 UTC NOAA

KNEL 160300Z AUTO 12010G21KT 10SM -RA BKN006 OVC012 10/09 A2972 RMK AO2 CIG 004V008 SLP064 P0017 60033 T01000094 58024 $


Station Type Date Time Source
KNEL Decoded METAR 2021/01/16 03:00 UTC NOAA

Lakehurst Naval Air Station, NJ, United States (KNEL) 40-02N 074-19W 24M
Jan 15, 2021 - 10:00 PM EST / 2021.01.16 0300 UTC
Wind: from the ESE (120 degrees) at 12 MPH (10 KT) gusting to 24 MPH (21 KT):0
Visibility: 10 mile(s):0
Sky conditions: overcast
Weather: light rain
Precipitation last hour: 0.17 inches
Temperature: 50.0 F (10.0 C)
Dew Point: 48.9 F (9.4 C)
Relative Humidity: 96%
Pressure (altimeter): 29.72 in. Hg (1006 hPa)
Pressure tendency: 0.07 inches (2.4 hPa) lower than three hours ago
ob: KNEL 160300Z AUTO 12010G21KT 10SM -RA BKN006 OVC012 10/09 A2972 RMK AO2 CIG 004V008 SLP064 P0017 60033 T01000094 58024
cycle: 3

Station Type Date Time Source
KNEL TAF UTC NOAA

Error!

Example: see airport list